Time;durP1;ratioP1;P1;durP2;ratioP2;P2;SDS_P1;SDS_P2;PMS_P1;PMS_P2;Temp;Humidity;BMP_temperature;BMP_pressure;BME280_temperature;BME280_humidity;BME280_pressure;Samples;Min_cycle;Max_cycle;Signal;HPM_P1;HPM_P2
2022/09/30 00:01:47;;;;;;;6.78;4.40;;;9.90;99.90;;;;;;5095566;28;20492;-74
2022/09/30 00:04:16;;;;;;;6.03;4.30;;;10.00;99.90;;;;;;5108302;28;20822;-74
2022/09/30 00:06:42;;;;;;;8.07;5.00;;;9.90;99.90;;;;;;5102684;27;20450;-74
2022/09/30 00:09:10;;;;;;;8.20;4.82;;;10.00;99.90;;;;;;5128569;27;20458;-74
2022/09/30 00:11:38;;;;;;;6.97;4.82;;;10.00;99.90;;;;;;5128789;27;20395;-74
2022/09/30 00:14:05;;;;;;;7.75;5.43;;;10.00;99.90;;;;;;5127505;27;20407;-74
2022/09/30 00:16:33;;;;;;;7.40;5.20;;;10.00;99.90;;;;;;5128896;27;20395;-74
2022/09/30 00:19:00;;;;;;;9.43;4.82;;;10.00;99.90;;;;;;5128259;27;20402;-74
2022/09/30 00:21:30;;;;;;;8.33;5.10;;;10.00;99.90;;;;;;5129008;27;20390;-74
2022/09/30 00:23:56;;;;;;;8.00;4.80;;;10.00;99.90;;;;;;5127596;27;20572;-74
2022/09/30 00:26:23;;;;;;;6.70;4.78;;;10.00;99.90;;;;;;5127961;27;20422;-74
2022/09/30 00:29:00;;;;;;;6.43;5.18;;;10.00;99.90;;;;;;5125794;27;20395;-74
2022/09/30 00:31:31;;;;;;;7.78;4.90;;;9.90;99.90;;;;;;5106992;28;20408;-74
2022/09/30 00:34:06;;;;;;;5.03;4.00;;;9.90;99.90;;;;;;5121658;27;20404;-74
2022/09/30 00:36:44;;;;;;;6.72;4.57;;;9.90;99.90;;;;;;5108097;28;20977;-74
2022/09/30 00:39:18;;;;;;;7.38;4.75;;;9.90;99.90;;;;;;5107925;28;20400;-74
2022/09/30 00:41:47;;;;;;;8.15;4.93;;;9.80;99.90;;;;;;5110513;27;20411;-74
2022/09/30 00:44:46;;;;;;;7.63;4.75;;;9.80;99.90;;;;;;5128931;27;20395;-74
2022/09/30 00:47:42;;;;;;;8.93;4.60;;;9.80;99.90;;;;;;5102916;27;20834;-74
2022/09/30 00:50:35;;;;;;;11.95;5.40;;;9.80;99.90;;;;;;5113948;27;20489;-74
2022/09/30 00:53:28;;;;;;;7.83;4.70;;;9.80;99.90;;;;;;5127340;27;20832;-74
2022/09/30 00:56:12;;;;;;;8.30;4.82;;;9.80;99.90;;;;;;5105506;28;20427;-74
2022/09/30 00:58:53;;;;;;;8.63;4.93;;;9.80;99.90;;;;;;5108323;28;20404;-74
2022/09/30 01:01:20;;;;;;;8.93;4.90;;;9.80;99.90;;;;;;5108975;28;20452;-74
2022/09/30 01:03:51;;;;;;;7.45;4.60;;;9.80;99.90;;;;;;5108832;27;20388;-74
2022/09/30 01:06:19;;;;;;;7.45;4.45;;;9.80;99.90;;;;;;5108107;27;20495;-74
2022/09/30 01:08:45;;;;;;;8.68;4.85;;;9.80;99.90;;;;;;5112455;27;20389;-74
2022/09/30 01:11:11;;;;;;;7.63;4.65;;;9.80;99.90;;;;;;5111327;27;20405;-74
2022/09/30 01:13:39;;;;;;;7.07;4.27;;;9.80;99.90;;;;;;5112393;27;20453;-74
2022/09/30 01:17:02;;;;;;;10.13;5.00;;;9.80;99.90;;;;;;5112653;27;20400;-74
2022/09/30 01:19:39;;;;;;;6.97;4.83;;;9.70;99.90;;;;;;5089612;28;20482;-74
2022/09/30 01:22:29;;;;;;;7.75;4.53;;;9.70;99.90;;;;;;5088989;28;20828;-74
2022/09/30 01:25:00;;;;;;;8.15;4.55;;;9.70;99.90;;;;;;5104933;27;20420;-74
2022/09/30 01:27:59;;;;;;;7.95;4.75;;;9.70;99.90;;;;;;5112171;28;20427;-74
2022/09/30 01:31:13;;;;;;;10.07;4.68;;;9.60;99.90;;;;;;5111393;27;20419;-74
2022/09/30 01:34:18;;;;;;;9.65;4.95;;;9.60;99.90;;;;;;5100449;28;20495;-74
2022/09/30 01:37:09;;;;;;;7.25;4.28;;;9.50;99.90;;;;;;5109405;27;21029;-74
2022/09/30 01:40:21;;;;;;;8.15;4.90;;;9.50;99.90;;;;;;5120521;27;20759;-74
2022/09/30 01:43:10;;;;;;;6.85;4.57;;;9.40;99.90;;;;;;5087278;28;20743;-74
2022/09/30 01:45:57;;;;;;;8.52;5.18;;;9.30;99.90;;;;;;5117357;27;20410;-74
2022/09/30 01:48:35;;;;;;;7.53;4.68;;;9.30;99.90;;;;;;5114658;27;20542;-74
2022/09/30 01:51:09;;;;;;;7.22;4.70;;;9.20;99.90;;;;;;5098442;27;20791;-74
2022/09/30 01:54:07;;;;;;;7.60;5.07;;;9.20;99.90;;;;;;5113738;27;20407;-74
2022/09/30 01:57:07;;;;;;;8.27;4.90;;;9.10;99.90;;;;;;5130442;27;20745;-74
2022/09/30 01:59:44;;;;;;;6.68;5.15;;;9.10;99.90;;;;;;5064591;28;20401;-74
2022/09/30 02:02:18;;;;;;;7.55;4.90;;;9.00;99.90;;;;;;5100282;28;20491;-74
2022/09/30 02:05:00;;;;;;;7.50;5.25;;;9.00;99.90;;;;;;5127096;27;20482;-74
2022/09/30 02:07:35;;;;;;;7.97;5.10;;;9.00;99.90;;;;;;5120651;27;20519;-74
2022/09/30 02:10:16;;;;;;;10.02;4.90;;;8.90;99.90;;;;;;5133035;27;20466;-75
2022/09/30 02:12:49;;;;;;;7.07;4.93;;;8.90;99.90;;;;;;5130252;27;20399;-74
2022/09/30 02:15:21;;;;;;;7.35;4.97;;;8.90;99.90;;;;;;5131263;27;20401;-74
2022/09/30 02:17:55;;;;;;;7.27;5.00;;;8.80;99.90;;;;;;5106713;27;20419;-74
2022/09/30 02:20:25;;;;;;;8.25;5.00;;;8.80;99.90;;;;;;5130785;27;20881;-74
2022/09/30 02:23:04;;;;;;;7.05;4.95;;;8.80;99.90;;;;;;5130020;27;20934;-74
2022/09/30 02:25:37;;;;;;;9.05;5.32;;;8.70;99.90;;;;;;5129782;27;20405;-74
2022/09/30 02:28:07;;;;;;;7.85;4.35;;;8.70;99.90;;;;;;5129621;27;20483;-74
2022/09/30 02:30:37;;;;;;;6.18;4.70;;;8.70;99.90;;;;;;5130397;27;20394;-74
2022/09/30 02:33:09;;;;;;;8.07;5.20;;;8.70;99.90;;;;;;5136985;27;20434;-75
2022/09/30 02:35:42;;;;;;;7.30;5.30;;;8.70;99.90;;;;;;5113097;27;20398;-74
2022/09/30 02:38:15;;;;;;;7.30;5.17;;;8.70;99.90;;;;;;5136828;27;20416;-74
2022/09/30 02:40:47;;;;;;;7.07;5.30;;;8.60;99.90;;;;;;5104691;28;20404;-74
2022/09/30 02:43:14;;;;;;;8.20;5.40;;;8.60;99.90;;;;;;5110992;27;20456;-74
2022/09/30 02:45:55;;;;;;;7.60;4.80;;;8.60;99.90;;;;;;5111382;27;20400;-74
2022/09/30 02:49:13;;;;;;;7.93;5.07;;;8.60;99.90;;;;;;5111033;27;20432;-74
2022/09/30 02:52:11;;;;;;;6.70;4.82;;;8.50;99.90;;;;;;5086903;27;20413;-74
2022/09/30 02:54:46;;;;;;;7.28;4.82;;;8.50;99.90;;;;;;5107082;27;20754;-74
2022/09/30 02:57:21;;;;;;;6.88;4.70;;;8.50;99.90;;;;;;5111406;27;20408;-74
2022/09/30 02:59:51;;;;;;;5.68;4.07;;;8.40;99.90;;;;;;5110348;27;20409;-74
2022/09/30 03:02:18;;;;;;;6.43;4.97;;;8.40;99.90;;;;;;5110285;28;20392;-74
2022/09/30 03:04:46;;;;;;;7.63;4.80;;;8.40;99.90;;;;;;5112671;27;20408;-74
2022/09/30 03:07:13;;;;;;;6.28;4.20;;;8.40;99.90;;;;;;5091323;28;20432;-74
2022/09/30 03:09:39;;;;;;;7.03;4.68;;;8.40;99.90;;;;;;5108844;28;20397;-74
2022/09/30 03:12:43;;;;;;;5.63;4.20;;;8.30;99.90;;;;;;5110615;27;20951;-74
2022/09/30 03:15:36;;;;;;;5.97;4.28;;;8.40;99.90;;;;;;5118077;27;20421;-74
2022/09/30 03:18:22;;;;;;;5.63;4.20;;;8.30;99.90;;;;;;5112715;27;20440;-74
2022/09/30 03:20:57;;;;;;;5.88;4.68;;;8.30;99.90;;;;;;5098140;28;20418;-74
2022/09/30 03:23:47;;;;;;;6.13;4.22;;;8.30;99.90;;;;;;5109807;28;21324;-74
2022/09/30 03:26:25;;;;;;;6.78;4.88;;;8.20;99.90;;;;;;5109209;28;20407;-74
2022/09/30 03:29:31;;;;;;;7.88;4.95;;;8.20;99.90;;;;;;5108883;28;20409;-74
2022/09/30 03:32:26;;;;;;;6.75;4.78;;;8.20;99.90;;;;;;5114554;27;20462;-74
2022/09/30 03:35:02;;;;;;;6.20;4.97;;;8.20;99.90;;;;;;5072506;28;20407;-74
2022/09/30 03:37:51;;;;;;;10.40;4.50;;;8.20;99.90;;;;;;5114462;27;20711;-74
2022/09/30 03:40:29;;;;;;;6.18;4.50;;;8.20;99.90;;;;;;5127799;27;20452;-74
2022/09/30 03:43:17;;;;;;;5.78;4.32;;;8.20;99.90;;;;;;5128999;27;20428;-74
2022/09/30 03:46:12;;;;;;;7.60;4.93;;;8.10;99.90;;;;;;5122591;27;20398;-74
2022/09/30 03:48:40;;;;;;;9.23;5.60;;;8.10;99.90;;;;;;5128112;27;20421;-74
2022/09/30 03:51:07;;;;;;;8.95;4.90;;;8.10;99.90;;;;;;5129440;27;20399;-74
2022/09/30 03:53:40;;;;;;;6.77;4.90;;;8.10;99.90;;;;;;5128643;27;20443;-74
2022/09/30 03:56:06;;;;;;;6.82;4.90;;;8.00;99.90;;;;;;5129946;27;20463;-74
2022/09/30 03:58:33;;;;;;;23.93;5.33;;;8.00;99.90;;;;;;5110544;27;20388;-74
2022/09/30 04:00:59;;;;;;;16.60;4.75;;;8.10;99.90;;;;;;5108571;27;20405;-74
2022/09/30 04:03:26;;;;;;;23.00;5.18;;;8.10;99.90;;;;;;5109181;28;20788;-74
2022/09/30 04:05:52;;;;;;;28.42;5.50;;;8.00;99.90;;;;;;5108928;28;20902;-74
2022/09/30 04:08:18;;;;;;;15.60;5.00;;;8.00;99.90;;;;;;5109319;28;20431;-74
2022/09/30 04:10:44;;;;;;;31.10;4.85;;;8.00;99.90;;;;;;5119836;27;20394;-74
2022/09/30 04:13:10;;;;;;;29.83;5.23;;;8.00;99.90;;;;;;5128575;27;20406;-74
2022/09/30 04:15:36;;;;;;;19.00;4.30;;;8.00;99.90;;;;;;5128677;27;20493;-74
2022/09/30 04:18:03;;;;;;;24.27;4.50;;;7.90;99.90;;;;;;5128430;27;20489;-74
2022/09/30 04:20:29;;;;;;;17.20;4.60;;;7.90;99.90;;;;;;5128671;27;20390;-74
2022/09/30 04:22:59;;;;;;;27.00;5.55;;;7.90;99.90;;;;;;5128220;27;20471;-74
2022/09/30 04:25:27;;;;;;;24.50;4.55;;;7.80;99.90;;;;;;5127690;27;20467;-74
2022/09/30 04:27:53;;;;;;;22.13;5.10;;;7.80;99.90;;;;;;5127941;27;20966;-74
2022/09/30 04:30:18;;;;;;;21.42;4.95;;;7.80;99.90;;;;;;5128067;27;20421;-74
2022/09/30 04:32:44;;;;;;;15.80;4.33;;;7.80;99.90;;;;;;5128441;27;20896;-74
2022/09/30 04:35:13;;;;;;;12.40;4.53;;;7.80;99.90;;;;;;5128482;27;20409;-74
2022/09/30 04:37:46;;;;;;;12.35;4.68;;;7.80;99.90;;;;;;5121624;27;20907;-74
2022/09/30 04:40:13;;;;;;;19.92;4.88;;;7.70;99.90;;;;;;5108151;28;20755;-74
2022/09/30 04:42:41;;;;;;;14.80;5.33;;;7.70;99.90;;;;;;5093737;28;20445;-74
2022/09/30 04:45:11;;;;;;;31.88;5.40;;;7.70;99.90;;;;;;5108311;28;20463;-74
2022/09/30 04:47:37;;;;;;;44.53;6.70;;;7.70;99.90;;;;;;5107727;28;20420;-74
2022/09/30 04:50:04;;;;;;;38.38;6.63;;;7.70;99.90;;;;;;5107381;28;20750;-74
2022/09/30 04:52:29;;;;;;;44.78;6.65;;;7.60;99.90;;;;;;5106801;28;20485;-74
2022/09/30 04:54:56;;;;;;;29.10;6.27;;;7.60;99.90;;;;;;5111087;27;21060;-74
2022/09/30 04:57:22;;;;;;;26.52;6.45;;;7.60;99.90;;;;;;5107983;28;20407;-74
2022/09/30 04:59:49;;;;;;;27.87;7.20;;;7.60;99.90;;;;;;5097949;28;20400;-74
2022/09/30 05:02:15;;;;;;;21.38;6.55;;;7.50;99.90;;;;;;5124177;27;20972;-74
2022/09/30 05:04:41;;;;;;;20.00;6.57;;;7.50;99.90;;;;;;5128652;27;20402;-74
2022/09/30 05:07:07;;;;;;;16.43;6.33;;;7.50;99.90;;;;;;5127321;27;20457;-74
2022/09/30 05:09:36;;;;;;;17.03;6.40;;;7.40;99.90;;;;;;5089722;28;20404;-74
2022/09/30 05:12:02;;;;;;;11.33;6.33;;;7.40;99.90;;;;;;5121277;27;20398;-74
2022/09/30 05:14:29;;;;;;;9.73;6.10;;;7.40;99.90;;;;;;5119213;28;20444;-74
2022/09/30 05:16:55;;;;;;;12.18;6.28;;;7.40;99.90;;;;;;5108977;28;21191;-74
2022/09/30 05:19:20;;;;;;;9.93;5.83;;;7.40;99.90;;;;;;5120389;27;20396;-73
2022/09/30 05:21:46;;;;;;;12.70;6.53;;;7.30;99.90;;;;;;5107238;28;20401;-74
2022/09/30 05:24:12;;;;;;;10.63;6.35;;;7.30;99.90;;;;;;5115732;28;20444;-74
2022/09/30 05:26:39;;;;;;;11.17;6.87;;;7.30;99.90;;;;;;5115364;27;20415;-74
2022/09/30 05:29:05;;;;;;;10.63;6.55;;;7.30;99.90;;;;;;5127579;27;20438;-73
2022/09/30 05:31:31;;;;;;;7.90;6.23;;;7.30;99.90;;;;;;5128306;27;20438;-74
2022/09/30 05:33:57;;;;;;;8.18;5.60;;;7.30;99.90;;;;;;5127947;27;20737;-75
2022/09/30 05:36:22;;;;;;;7.22;5.68;;;7.30;99.90;;;;;;5127908;27;20390;-74
2022/09/30 05:38:52;;;;;;;8.63;5.53;;;7.30;99.90;;;;;;5113473;27;20834;-74
2022/09/30 05:41:20;;;;;;;6.82;5.40;;;7.30;99.90;;;;;;5108140;28;20996;-74
2022/09/30 05:43:46;;;;;;;7.45;5.70;;;7.30;99.90;;;;;;5107038;28;20735;-74
2022/09/30 05:46:17;;;;;;;8.63;5.68;;;7.20;99.90;;;;;;5106839;28;20747;-74
2022/09/30 05:48:43;;;;;;;7.88;5.45;;;7.20;99.90;;;;;;5106152;28;20411;-74
2022/09/30 05:51:09;;;;;;;8.55;5.60;;;7.20;99.90;;;;;;5106791;28;20397;-74
2022/09/30 05:53:40;;;;;;;7.33;5.33;;;7.20;99.90;;;;;;5111022;28;20407;-74
2022/09/30 05:56:09;;;;;;;7.57;5.25;;;7.20;99.90;;;;;;5122114;27;20398;-74
2022/09/30 05:58:36;;;;;;;15.02;5.90;;;7.20;99.90;;;;;;5113592;27;20459;-73
2022/09/30 06:01:10;;;;;;;7.40;5.65;;;7.20;99.90;;;;;;5120916;27;20398;-74
2022/09/30 06:03:37;;;;;;;7.15;5.45;;;7.20;99.90;;;;;;5130871;27;20402;-74
2022/09/30 06:06:04;;;;;;;7.07;5.53;;;7.20;99.90;;;;;;5131290;27;20957;-74
2022/09/30 06:08:30;;;;;;;7.57;5.65;;;7.20;99.90;;;;;;5130532;27;20419;-74
2022/09/30 06:10:58;;;;;;;7.30;5.77;;;7.20;99.90;;;;;;5129919;27;20754;-74
2022/09/30 06:13:25;;;;;;;7.18;5.60;;;7.20;99.90;;;;;;5129422;27;20885;-74
2022/09/30 06:15:55;;;;;;;8.25;6.18;;;7.20;99.90;;;;;;5130740;27;20471;-74
2022/09/30 06:18:21;;;;;;;7.73;5.87;;;7.30;99.90;;;;;;5128859;27;20420;-74
2022/09/30 06:20:47;;;;;;;10.30;6.03;;;7.30;99.90;;;;;;5130204;27;20440;-74
2022/09/30 06:23:13;;;;;;;6.72;5.60;;;7.30;99.90;;;;;;5130296;27;20435;-74
2022/09/30 06:25:38;;;;;;;9.57;6.50;;;7.40;99.90;;;;;;5129459;27;20407;-75
2022/09/30 06:28:04;;;;;;;7.73;6.50;;;7.40;99.90;;;;;;5128989;27;20456;-74
2022/09/30 06:30:30;;;;;;;7.03;6.00;;;7.40;99.90;;;;;;5130689;27;21431;-74
2022/09/30 06:32:56;;;;;;;8.07;6.60;;;7.50;99.90;;;;;;5129837;27;20399;-75
2022/09/30 06:35:23;;;;;;;8.60;6.20;;;7.50;99.90;;;;;;5130856;27;20904;-74
2022/09/30 06:37:52;;;;;;;9.32;6.32;;;7.60;99.90;;;;;;5128926;27;20394;-73
2022/09/30 06:40:21;;;;;;;8.83;6.20;;;7.60;99.90;;;;;;5130297;27;20437;-74
2022/09/30 06:42:48;;;;;;;14.27;6.53;;;7.60;99.90;;;;;;5129544;27;20395;-74
2022/09/30 06:45:14;;;;;;;18.50;6.93;;;7.70;99.90;;;;;;5130155;27;20448;-74
2022/09/30 06:47:40;;;;;;;30.05;7.93;;;7.70;99.90;;;;;;5127289;27;20426;-74
2022/09/30 06:50:07;;;;;;;17.98;7.78;;;7.80;99.90;;;;;;5129090;27;20473;-74
2022/09/30 06:52:33;;;;;;;19.35;8.38;;;7.80;99.90;;;;;;5128896;27;20402;-74
2022/09/30 06:54:59;;;;;;;12.35;7.65;;;7.90;99.90;;;;;;5127795;27;20418;-74
2022/09/30 06:57:26;;;;;;;9.57;7.37;;;8.00;99.90;;;;;;5128725;27;20428;-74
2022/09/30 06:59:53;;;;;;;9.70;7.53;;;8.00;99.90;;;;;;5114372;27;20410;-74
2022/09/30 07:02:19;;;;;;;8.68;7.05;;;8.00;99.90;;;;;;5109541;28;20905;-74
2022/09/30 07:04:45;;;;;;;9.70;7.57;;;8.00;99.90;;;;;;5107778;28;20856;-74
2022/09/30 07:07:11;;;;;;;9.52;7.50;;;8.00;99.90;;;;;;5124907;27;20453;-73
2022/09/30 07:09:37;;;;;;;10.55;7.35;;;8.10;99.90;;;;;;5116655;27;20477;-73
2022/09/30 07:12:03;;;;;;;9.57;7.65;;;8.10;99.90;;;;;;5111619;27;20519;-74
2022/09/30 07:14:31;;;;;;;11.43;8.68;;;8.10;99.90;;;;;;5129944;27;20391;-73
2022/09/30 07:16:57;;;;;;;11.87;9.03;;;8.20;99.90;;;;;;5122553;27;20404;-73
2022/09/30 07:19:23;;;;;;;12.10;9.20;;;8.30;99.90;;;;;;5119448;27;21120;-73
2022/09/30 07:21:49;;;;;;;13.43;10.33;;;8.30;99.90;;;;;;5127602;27;20501;-73
2022/09/30 07:24:15;;;;;;;13.25;9.98;;;8.30;99.90;;;;;;5129767;27;20452;-74
2022/09/30 07:26:40;;;;;;;12.52;9.85;;;8.40;99.90;;;;;;5127336;27;20426;-74
2022/09/30 07:29:06;;;;;;;14.15;9.55;;;8.40;99.90;;;;;;5129215;27;20410;-73
2022/09/30 07:31:33;;;;;;;14.00;9.20;;;8.50;99.90;;;;;;5127785;27;20391;-73
2022/09/30 07:33:58;;;;;;;12.53;9.13;;;8.60;99.90;;;;;;5126586;27;20436;-74
2022/09/30 07:36:29;;;;;;;12.37;9.47;;;8.70;99.90;;;;;;5119835;27;20462;-74
2022/09/30 07:38:55;;;;;;;14.13;9.90;;;8.70;99.90;;;;;;5115998;27;20395;-73
2022/09/30 07:41:26;;;;;;;14.05;10.10;;;8.80;99.90;;;;;;5119139;27;20891;-74
2022/09/30 07:43:54;;;;;;;13.77;9.63;;;8.90;99.90;;;;;;5109111;27;20404;-74
2022/09/30 07:46:24;;;;;;;14.05;9.93;;;8.90;99.90;;;;;;5107752;28;20442;-73
2022/09/30 07:48:53;;;;;;;14.63;9.90;;;9.00;99.90;;;;;;5109268;27;20399;-74
2022/09/30 07:51:49;;;;;;;13.75;10.27;;;9.10;99.90;;;;;;5109640;28;20489;-74
2022/09/30 07:54:16;;;;;;;12.77;9.90;;;9.20;99.90;;;;;;5094885;27;20434;-73
2022/09/30 07:56:43;;;;;;;14.07;10.20;;;9.30;99.90;;;;;;5109990;27;20514;-74
2022/09/30 07:59:10;;;;;;;13.52;10.43;;;9.30;99.90;;;;;;5109920;27;20525;-73
2022/09/30 08:01:36;;;;;;;14.27;10.75;;;9.40;99.90;;;;;;5110715;27;20464;-74
2022/09/30 08:04:04;;;;;;;13.97;10.40;;;9.40;99.90;;;;;;5108934;28;20483;-73
2022/09/30 08:06:34;;;;;;;12.85;9.27;;;9.50;99.90;;;;;;5110703;27;20434;-74
2022/09/30 08:09:00;;;;;;;14.20;9.48;;;9.60;99.90;;;;;;5109846;27;20425;-74
2022/09/30 08:11:26;;;;;;;14.20;9.60;;;9.70;99.90;;;;;;5126525;27;20398;-74
2022/09/30 08:13:53;;;;;;;12.75;9.00;;;9.80;99.90;;;;;;5128791;27;20387;-73
2022/09/30 08:16:19;;;;;;;13.38;9.45;;;9.80;99.90;;;;;;5128480;27;20406;-74
2022/09/30 08:18:45;;;;;;;11.30;8.90;;;9.90;99.90;;;;;;5128527;27;20475;-74
2022/09/30 08:21:11;;;;;;;12.75;8.98;;;9.90;99.90;;;;;;5127216;27;20887;-74
2022/09/30 08:23:37;;;;;;;13.52;8.73;;;10.00;99.90;;;;;;5128078;27;20433;-73
2022/09/30 08:26:11;;;;;;;11.57;8.30;;;10.10;99.90;;;;;;5127200;27;21272;-74
2022/09/30 08:28:37;;;;;;;11.33;7.63;;;10.10;99.90;;;;;;5115724;27;20534;-74
2022/09/30 08:31:08;;;;;;;11.20;8.20;;;10.20;99.90;;;;;;5124494;27;20409;-73
2022/09/30 08:33:34;;;;;;;10.87;7.57;;;10.30;99.90;;;;;;5128176;27;20888;-74
2022/09/30 08:36:11;;;;;;;11.35;7.65;;;10.40;99.90;;;;;;5128570;27;20420;-74
2022/09/30 08:38:38;;;;;;;10.30;7.03;;;10.40;99.90;;;;;;5134019;27;20493;-75
2022/09/30 08:41:27;;;;;;;10.15;7.20;;;10.50;99.90;;;;;;5135455;27;20398;-75
2022/09/30 08:44:20;;;;;;;8.82;4.93;;;10.60;99.90;;;;;;5133600;27;21510;-74
2022/09/30 08:46:56;;;;;;;7.20;5.30;;;10.70;99.90;;;;;;5127466;27;20430;-75
2022/09/30 08:49:48;;;;;;;6.25;4.45;;;10.80;99.90;;;;;;5137006;27;20483;-74
2022/09/30 08:52:23;;;;;;;6.80;4.15;;;11.00;99.90;;;;;;5129117;27;20818;-75
2022/09/30 08:54:53;;;;;;;6.07;3.90;;;11.10;99.90;;;;;;5127745;27;20387;-74
2022/09/30 08:57:19;;;;;;;5.97;3.80;;;11.20;99.90;;;;;;5116990;27;20745;-75
2022/09/30 08:59:53;;;;;;;5.00;3.42;;;11.30;99.90;;;;;;5127721;27;20420;-74
2022/09/30 09:02:26;;;;;;;5.82;3.38;;;11.40;99.90;;;;;;5127689;27;20517;-75
2022/09/30 09:04:56;;;;;;;4.85;3.17;;;11.60;99.90;;;;;;5127958;27;20424;-74
2022/09/30 09:07:49;;;;;;;4.72;2.72;;;12.50;99.90;;;;;;5131204;27;20443;-75
2022/09/30 09:10:21;;;;;;;3.10;2.03;;;13.80;99.90;;;;;;5098844;28;20814;-76
2022/09/30 09:13:08;;;;;;;2.67;1.42;;;15.20;99.90;;;;;;5111192;28;20404;-76
2022/09/30 09:16:08;;;;;;;3.55;1.40;;;16.20;99.90;;;;;;5115388;28;20745;-73
2022/09/30 09:18:56;;;;;;;3.58;1.70;;;17.40;99.90;;;;;;5115061;27;20908;-72
2022/09/30 09:21:44;;;;;;;2.90;1.30;;;18.20;99.90;;;;;;5115758;27;20401;-73
2022/09/30 09:24:22;;;;;;;5.03;1.70;;;19.00;99.90;;;;;;5108759;28;20404;-72
2022/09/30 09:26:49;;;;;;;2.35;1.30;;;19.60;99.90;;;;;;5119814;27;20415;-73
2022/09/30 09:29:36;;;;;;;3.30;1.17;;;20.10;99.90;;;;;;5133470;27;20756;-74
2022/09/30 09:32:05;;;;;;;3.40;1.30;;;20.80;99.90;;;;;;5132690;27;20405;-73
2022/09/30 09:34:31;;;;;;;3.83;1.50;;;21.20;99.90;;;;;;5106719;27;20399;-73
2022/09/30 09:36:57;;;;;;;2.30;1.20;;;21.50;99.90;;;;;;5117479;27;20396;-74
2022/09/30 09:40:06;;;;;;;2.33;1.40;;;21.70;99.90;;;;;;5113032;27;20453;-74
2022/09/30 09:42:56;;;;;;;3.42;1.60;;;22.00;99.90;;;;;;5112542;28;20436;-74
2022/09/30 09:45:30;;;;;;;3.20;1.63;;;22.50;99.90;;;;;;5094971;27;20427;-74
2022/09/30 09:47:56;;;;;;;3.08;1.92;;;22.80;99.90;;;;;;5112199;27;20493;-73
2022/09/30 09:50:31;;;;;;;2.72;1.60;;;22.90;99.90;;;;;;5112564;27;20403;-74
2022/09/30 09:53:03;;;;;;;3.38;2.00;;;22.90;99.90;;;;;;5110851;27;20769;-74
2022/09/30 09:55:29;;;;;;;3.83;1.80;;;23.20;99.90;;;;;;5111550;28;20401;-73
2022/09/30 09:58:06;;;;;;;3.42;1.90;;;23.40;99.90;;;;;;5112007;27;20754;-74
2022/09/30 10:03:19;;;;;;;4.00;1.95;;;24.00;99.10;;;;;;5128491;27;20402;-74
2022/09/30 10:05:57;;;;;;;2.40;1.63;;;24.40;99.50;;;;;;5131854;27;20440;-74
2022/09/30 10:08:22;;;;;;;2.60;1.48;;;24.60;96.60;;;;;;5124801;27;20797;-74
2022/09/30 10:10:54;;;;;;;2.40;1.13;;;24.80;97.80;;;;;;5111488;28;20397;-74
2022/09/30 10:13:22;;;;;;;3.13;1.00;;;25.00;95.80;;;;;;5111538;27;21177;-73
2022/09/30 10:15:53;;;;;;;2.78;1.10;;;25.10;95.40;;;;;;5111219;27;20405;-73
2022/09/30 10:18:32;;;;;;;2.85;0.90;;;25.30;94.50;;;;;;5097963;28;20427;-73
2022/09/30 10:21:01;;;;;;;1.92;0.80;;;25.40;94.40;;;;;;5111753;27;20405;-73
2022/09/30 10:23:36;;;;;;;2.22;0.88;;;25.60;92.70;;;;;;5111366;27;20436;-72
2022/09/30 10:26:13;;;;;;;1.83;0.60;;;25.70;94.40;;;;;;5111459;27;20419;-73
2022/09/30 10:28:50;;;;;;;1.87;0.50;;;25.90;92.40;;;;;;5110806;27;20503;-72
2022/09/30 10:31:31;;;;;;;2.40;0.60;;;25.50;93.10;;;;;;5109940;27;20438;-72
2022/09/30 10:34:15;;;;;;;1.10;0.50;;;25.60;91.80;;;;;;5111692;27;20405;-73
2022/09/30 10:36:42;;;;;;;1.02;0.25;;;25.60;87.40;;;;;;5111332;27;20405;-72
2022/09/30 10:39:28;;;;;;;0.80;0.28;;;25.10;90.50;;;;;;5108606;27;20400;-72
2022/09/30 10:42:08;;;;;;;0.93;0.30;;;24.90;90.60;;;;;;5111302;27;20771;-72
2022/09/30 10:44:45;;;;;;;1.03;0.20;;;25.10;87.30;;;;;;5111589;27;20504;-72
2022/09/30 10:47:18;;;;;;;1.23;0.30;;;25.10;90.10;;;;;;5111582;27;20465;-74
2022/09/30 10:49:49;;;;;;;0.55;0.30;;;25.10;90.50;;;;;;5111228;27;20766;-73
2022/09/30 10:52:19;;;;;;;1.13;0.40;;;25.40;90.30;;;;;;5111591;27;20446;-73
2022/09/30 10:54:52;;;;;;;0.77;0.17;;;25.60;88.80;;;;;;5110760;27;20399;-73
2022/09/30 10:57:31;;;;;;;1.05;0.13;;;25.80;85.40;;;;;;5109890;28;20392;-73
2022/09/30 11:00:00;;;;;;;0.73;0.20;;;25.90;86.10;;;;;;5108367;27;20936;-73
2022/09/30 11:02:32;;;;;;;0.80;0.10;;;26.00;86.30;;;;;;5110337;28;20762;-73
2022/09/30 11:05:06;;;;;;;0.80;0.20;;;26.30;86.00;;;;;;5108408;27;20411;-73
2022/09/30 11:07:59;;;;;;;0.30;0.10;;;26.40;85.20;;;;;;5109797;28;20420;-73
2022/09/30 11:10:47;;;;;;;0.20;0.10;;;26.60;85.30;;;;;;5109642;28;20412;-73
2022/09/30 11:13:36;;;;;;;0.30;0.10;;;26.70;82.70;;;;;;5110072;27;20400;-73
2022/09/30 11:16:08;;;;;;;0.90;0.20;;;26.80;81.00;;;;;;5127496;27;20912;-73
2022/09/30 11:18:42;;;;;;;0.43;0.17;;;26.90;79.20;;;;;;5116327;27;20436;-73
2022/09/30 11:21:27;;;;;;;0.65;0.15;;;27.10;80.00;;;;;;5130108;27;20413;-73
2022/09/30 11:24:02;;;;;;;0.68;0.30;;;27.10;80.70;;;;;;5102641;28;20404;-74
2022/09/30 11:26:46;;;;;;;1.30;0.38;;;26.90;75.30;;;;;;5109668;28;20411;-73
2022/09/30 11:29:42;;;;;;;1.07;0.30;;;26.90;80.40;;;;;;5109599;28;20417;-74
2022/09/30 11:32:29;;;;;;;1.43;0.67;;;27.00;79.60;;;;;;5108404;28;20872;-73
2022/09/30 11:35:11;;;;;;;1.83;1.05;;;26.90;77.50;;;;;;5107666;28;20910;-73
2022/09/30 11:37:48;;;;;;;2.25;1.20;;;27.10;77.80;;;;;;5109185;28;20484;-73
2022/09/30 11:40:38;;;;;;;2.63;1.50;;;27.10;76.90;;;;;;5110130;27;20495;-73
2022/09/30 11:43:03;;;;;;;1.77;1.00;;;26.60;77.40;;;;;;5108843;27;20412;-73
2022/09/30 11:45:47;;;;;;;2.57;1.30;;;26.40;76.90;;;;;;5122005;27;20405;-73
2022/09/30 11:48:54;;;;;;;1.95;1.00;;;26.70;76.00;;;;;;5120485;27;20454;-73
2022/09/30 11:51:51;;;;;;;1.90;0.70;;;27.20;76.20;;;;;;5109268;27;20776;-73
2022/09/30 11:54:45;;;;;;;1.73;0.70;;;27.60;73.80;;;;;;5104424;27;20764;-74
2022/09/30 11:57:24;;;;;;;1.23;0.65;;;27.70;73.20;;;;;;5128338;27;20399;-72
2022/09/30 11:59:59;;;;;;;1.98;0.60;;;27.00;73.00;;;;;;5128319;27;20431;-72
2022/09/30 12:02:52;;;;;;;1.83;0.60;;;25.90;70.90;;;;;;5104713;27;20490;-72
2022/09/30 12:05:33;;;;;;;1.88;0.50;;;24.70;73.30;;;;;;5127874;27;20395;-72
2022/09/30 12:08:17;;;;;;;0.88;0.40;;;24.20;75.70;;;;;;5128886;27;20453;-73
2022/09/30 12:10:54;;;;;;;1.30;0.30;;;25.10;76.80;;;;;;5127988;27;20456;-74
2022/09/30 12:13:25;;;;;;;1.88;0.80;;;25.60;74.40;;;;;;5128914;27;20431;-73
2022/09/30 12:15:55;;;;;;;0.60;0.30;;;24.80;72.70;;;;;;5128927;27;20414;-73
2022/09/30 12:18:24;;;;;;;0.88;0.30;;;24.70;75.30;;;;;;5108504;27;20476;-73
2022/09/30 12:20:58;;;;;;;0.95;0.20;;;25.00;74.90;;;;;;5121066;27;20436;-73
2022/09/30 12:23:32;;;;;;;0.80;0.30;;;24.90;73.10;;;;;;5128702;27;20505;-72
2022/09/30 12:26:00;;;;;;;1.10;0.50;;;24.10;72.90;;;;;;5127529;27;20875;-72
2022/09/30 12:31:36;;;;;;;1.45;0.70;;;24.10;73.40;;;;;;5116476;27;20897;-73
2022/09/30 12:34:20;;;;;;;1.07;0.40;;;23.60;74.40;;;;;;5127826;27;20406;-72
2022/09/30 12:37:04;;;;;;;1.02;0.40;;;24.10;76.30;;;;;;5128395;27;20403;-73
2022/09/30 12:39:51;;;;;;;1.38;0.52;;;25.10;75.90;;;;;;5127550;27;20413;-73
2022/09/30 12:42:35;;;;;;;1.05;0.43;;;25.30;72.50;;;;;;5127417;27;20790;-73
2022/09/30 12:45:16;;;;;;;1.38;0.68;;;25.80;71.00;;;;;;5128284;27;20912;-73
2022/09/30 12:47:50;;;;;;;1.63;0.70;;;26.40;70.40;;;;;;5128088;27;20426;-72
2022/09/30 12:50:20;;;;;;;1.65;0.57;;;26.20;68.70;;;;;;5127811;27;20405;-73
2022/09/30 12:52:46;;;;;;;2.40;0.70;;;25.80;69.80;;;;;;5127945;27;20883;-73
2022/09/30 12:55:41;;;;;;;1.70;0.50;;;25.90;70.50;;;;;;5126248;27;20390;-73
2022/09/30 12:58:24;;;;;;;3.05;0.57;;;26.40;69.40;;;;;;5102948;28;20918;-72
2022/09/30 13:01:13;;;;;;;1.20;0.40;;;26.30;66.30;;;;;;5108025;28;20450;-73
2022/09/30 13:03:52;;;;;;;1.40;0.43;;;25.20;67.60;;;;;;5107336;28;20755;-72
2022/09/30 13:06:21;;;;;;;1.45;0.60;;;24.10;69.70;;;;;;5107892;28;20407;-73
2022/09/30 13:09:17;;;;;;;2.07;0.50;;;23.50;71.40;;;;;;5093274;28;20463;-73
2022/09/30 13:11:43;;;;;;;1.42;0.47;;;23.50;73.30;;;;;;5119394;27;20397;-73
2022/09/30 13:14:34;;;;;;;1.27;0.47;;;24.60;72.20;;;;;;5108201;28;20454;-73
2022/09/30 13:17:05;;;;;;;1.75;0.52;;;25.00;70.10;;;;;;5096129;28;20492;-72
2022/09/30 13:19:47;;;;;;;2.03;0.50;;;24.10;70.00;;;;;;5107782;28;20793;-72
2022/09/30 13:22:28;;;;;;;1.30;0.50;;;23.40;71.50;;;;;;5106386;28;20412;-73
2022/09/30 13:24:56;;;;;;;1.70;0.50;;;22.70;73.20;;;;;;5107519;28;20511;-72
2022/09/30 13:27:35;;;;;;;1.08;0.40;;;22.10;73.30;;;;;;5108244;28;20914;-72
2022/09/30 13:30:21;;;;;;;0.93;0.45;;;21.50;75.20;;;;;;5106747;28;20890;-72
2022/09/30 13:32:50;;;;;;;1.70;0.60;;;21.10;76.00;;;;;;5107314;28;20412;-73
2022/09/30 13:35:40;;;;;;;1.85;0.65;;;20.80;77.00;;;;;;5106293;28;20416;-72